sensor_id;sensor_type;location;lat;lon;timestamp;P1;durP1;ratioP1;P2;durP2;ratioP2
25615;SDS011;13482;48.234;13.006;2022-12-18T00:01:31;19.77;;;11.05;;
25615;SDS011;13482;48.234;13.006;2022-12-18T00:04:02;17.15;;;10.43;;
25615;SDS011;13482;48.234;13.006;2022-12-18T00:06:33;20.80;;;11.95;;
25615;SDS011;13482;48.234;13.006;2022-12-18T00:09:02;17.92;;;10.63;;
25615;SDS011;13482;48.234;13.006;2022-12-18T00:11:30;18.00;;;10.45;;
25615;SDS011;13482;48.234;13.006;2022-12-18T00:13:58;17.25;;;10.65;;
25615;SDS011;13482;48.234;13.006;2022-12-18T00:16:27;18.33;;;10.82;;
25615;SDS011;13482;48.234;13.006;2022-12-18T00:18:56;17.25;;;9.50;;
25615;SDS011;13482;48.234;13.006;2022-12-18T00:21:23;16.67;;;9.85;;
25615;SDS011;13482;48.234;13.006;2022-12-18T00:23:51;16.48;;;9.93;;
25615;SDS011;13482;48.234;13.006;2022-12-18T00:26:23;16.38;;;9.43;;
25615;SDS011;13482;48.234;13.006;2022-12-18T00:28:58;16.58;;;9.95;;
25615;SDS011;13482;48.234;13.006;2022-12-18T00:31:27;17.90;;;10.05;;
25615;SDS011;13482;48.234;13.006;2022-12-18T00:33:55;19.42;;;9.77;;
25615;SDS011;13482;48.234;13.006;2022-12-18T00:36:24;18.30;;;10.15;;
25615;SDS011;13482;48.234;13.006;2022-12-18T00:38:56;18.08;;;9.90;;
25615;SDS011;13482;48.234;13.006;2022-12-18T00:41:25;18.33;;;10.10;;
25615;SDS011;13482;48.234;13.006;2022-12-18T00:44:13;17.55;;;9.40;;
25615;SDS011;13482;48.234;13.006;2022-12-18T00:46:43;13.52;;;7.55;;
25615;SDS011;13482;48.234;13.006;2022-12-18T00:49:11;17.58;;;9.63;;
25615;SDS011;13482;48.234;13.006;2022-12-18T00:51:38;14.85;;;8.43;;
25615;SDS011;13482;48.234;13.006;2022-12-18T00:54:06;17.35;;;9.52;;
25615;SDS011;13482;48.234;13.006;2022-12-18T00:56:34;15.85;;;8.88;;
25615;SDS011;13482;48.234;13.006;2022-12-18T00:59:13;16.37;;;9.20;;
25615;SDS011;13482;48.234;13.006;2022-12-18T01:01:41;16.02;;;9.40;;
25615;SDS011;13482;48.234;13.006;2022-12-18T01:04:09;16.17;;;9.05;;
25615;SDS011;13482;48.234;13.006;2022-12-18T01:06:36;16.35;;;9.20;;
25615;SDS011;13482;48.234;13.006;2022-12-18T01:09:03;15.30;;;8.77;;
25615;SDS011;13482;48.234;13.006;2022-12-18T01:11:30;16.30;;;8.93;;
25615;SDS011;13482;48.234;13.006;2022-12-18T01:13:57;16.25;;;8.70;;
25615;SDS011;13482;48.234;13.006;2022-12-18T01:16:26;16.48;;;9.43;;
25615;SDS011;13482;48.234;13.006;2022-12-18T01:18:53;17.63;;;9.75;;
25615;SDS011;13482;48.234;13.006;2022-12-18T01:21:21;18.05;;;9.80;;
25615;SDS011;13482;48.234;13.006;2022-12-18T01:23:51;16.40;;;9.75;;
25615;SDS011;13482;48.234;13.006;2022-12-18T01:26:23;17.77;;;9.48;;
25615;SDS011;13482;48.234;13.006;2022-12-18T01:28:53;16.88;;;9.48;;
25615;SDS011;13482;48.234;13.006;2022-12-18T01:31:25;19.15;;;10.02;;
25615;SDS011;13482;48.234;13.006;2022-12-18T01:33:54;16.50;;;9.60;;
25615;SDS011;13482;48.234;13.006;2022-12-18T01:36:32;17.75;;;9.93;;
25615;SDS011;13482;48.234;13.006;2022-12-18T01:39:06;19.33;;;9.38;;
25615;SDS011;13482;48.234;13.006;2022-12-18T01:41:37;17.08;;;9.15;;
25615;SDS011;13482;48.234;13.006;2022-12-18T01:52:58;18.00;;;9.93;;
25615;SDS011;13482;48.234;13.006;2022-12-18T01:58:19;11.00;;;6.43;;
25615;SDS011;13482;48.234;13.006;2022-12-18T02:00:50;17.83;;;8.90;;
25615;SDS011;13482;48.234;13.006;2022-12-18T02:03:17;15.77;;;9.07;;
25615;SDS011;13482;48.234;13.006;2022-12-18T02:06:00;16.52;;;8.90;;
25615;SDS011;13482;48.234;13.006;2022-12-18T02:14:23;18.88;;;9.50;;
25615;SDS011;13482;48.234;13.006;2022-12-18T02:17:25;15.63;;;9.47;;
25615;SDS011;13482;48.234;13.006;2022-12-18T02:26:05;16.42;;;9.25;;
25615;SDS011;13482;48.234;13.006;2022-12-18T02:31:51;16.42;;;8.60;;
25615;SDS011;13482;48.234;13.006;2022-12-18T02:34:24;17.15;;;9.32;;
25615;SDS011;13482;48.234;13.006;2022-12-18T02:36:55;15.52;;;9.15;;
25615;SDS011;13482;48.234;13.006;2022-12-18T02:41:56;15.80;;;8.60;;
25615;SDS011;13482;48.234;13.006;2022-12-18T02:44:24;17.17;;;9.32;;
25615;SDS011;13482;48.234;13.006;2022-12-18T02:46:52;16.38;;;9.02;;
25615;SDS011;13482;48.234;13.006;2022-12-18T02:52:17;17.10;;;9.85;;
25615;SDS011;13482;48.234;13.006;2022-12-18T02:55:16;15.55;;;9.27;;
25615;SDS011;13482;48.234;13.006;2022-12-18T03:04:40;15.27;;;7.82;;
25615;SDS011;13482;48.234;13.006;2022-12-18T03:07:34;16.10;;;9.82;;
25615;SDS011;13482;48.234;13.006;2022-12-18T03:10:26;15.65;;;9.07;;
25615;SDS011;13482;48.234;13.006;2022-12-18T03:13:08;16.65;;;9.43;;
25615;SDS011;13482;48.234;13.006;2022-12-18T03:15:45;15.05;;;8.93;;
25615;SDS011;13482;48.234;13.006;2022-12-18T03:18:21;17.30;;;9.38;;
25615;SDS011;13482;48.234;13.006;2022-12-18T03:21:03;16.23;;;9.45;;
25615;SDS011;13482;48.234;13.006;2022-12-18T03:23:34;15.73;;;8.93;;
25615;SDS011;13482;48.234;13.006;2022-12-18T03:26:10;16.73;;;9.23;;
25615;SDS011;13482;48.234;13.006;2022-12-18T03:28:44;15.05;;;8.70;;
25615;SDS011;13482;48.234;13.006;2022-12-18T03:31:17;15.93;;;9.35;;
25615;SDS011;13482;48.234;13.006;2022-12-18T03:36:21;15.68;;;8.52;;
25615;SDS011;13482;48.234;13.006;2022-12-18T03:38:50;15.70;;;8.60;;
25615;SDS011;13482;48.234;13.006;2022-12-18T03:44:12;15.30;;;8.55;;
25615;SDS011;13482;48.234;13.006;2022-12-18T03:52:18;13.23;;;7.78;;
25615;SDS011;13482;48.234;13.006;2022-12-18T03:54:51;16.63;;;8.90;;
25615;SDS011;13482;48.234;13.006;2022-12-18T03:57:22;14.10;;;8.00;;
25615;SDS011;13482;48.234;13.006;2022-12-18T04:00:01;15.60;;;8.85;;
25615;SDS011;13482;48.234;13.006;2022-12-18T04:02:38;14.35;;;8.98;;
25615;SDS011;13482;48.234;13.006;2022-12-18T04:05:19;13.70;;;7.93;;
25615;SDS011;13482;48.234;13.006;2022-12-18T04:07:48;14.95;;;8.95;;
25615;SDS011;13482;48.234;13.006;2022-12-18T04:10:18;14.05;;;8.73;;
25615;SDS011;13482;48.234;13.006;2022-12-18T04:12:45;14.32;;;8.52;;
25615;SDS011;13482;48.234;13.006;2022-12-18T04:15:12;16.13;;;9.10;;
25615;SDS011;13482;48.234;13.006;2022-12-18T04:17:47;15.80;;;8.50;;
25615;SDS011;13482;48.234;13.006;2022-12-18T04:20:15;14.45;;;8.50;;
25615;SDS011;13482;48.234;13.006;2022-12-18T04:22:43;17.10;;;9.30;;
25615;SDS011;13482;48.234;13.006;2022-12-18T04:25:11;14.00;;;8.32;;
25615;SDS011;13482;48.234;13.006;2022-12-18T04:27:38;14.52;;;8.18;;
25615;SDS011;13482;48.234;13.006;2022-12-18T04:30:06;13.75;;;8.13;;
25615;SDS011;13482;48.234;13.006;2022-12-18T04:32:34;14.20;;;8.95;;
25615;SDS011;13482;48.234;13.006;2022-12-18T04:35:02;16.45;;;9.15;;
25615;SDS011;13482;48.234;13.006;2022-12-18T04:37:30;13.18;;;8.45;;
25615;SDS011;13482;48.234;13.006;2022-12-18T04:39:57;16.30;;;8.73;;
25615;SDS011;13482;48.234;13.006;2022-12-18T04:42:25;15.35;;;9.23;;
25615;SDS011;13482;48.234;13.006;2022-12-18T04:44:52;16.33;;;9.25;;
25615;SDS011;13482;48.234;13.006;2022-12-18T04:47:19;14.57;;;8.43;;
25615;SDS011;13482;48.234;13.006;2022-12-18T04:49:46;15.23;;;8.90;;
25615;SDS011;13482;48.234;13.006;2022-12-18T04:52:13;15.57;;;9.38;;
25615;SDS011;13482;48.234;13.006;2022-12-18T04:54:40;15.88;;;8.57;;
25615;SDS011;13482;48.234;13.006;2022-12-18T04:57:07;15.20;;;9.05;;
25615;SDS011;13482;48.234;13.006;2022-12-18T04:59:34;14.55;;;8.82;;
25615;SDS011;13482;48.234;13.006;2022-12-18T05:02:01;14.93;;;8.60;;
25615;SDS011;13482;48.234;13.006;2022-12-18T05:04:29;14.98;;;8.75;;
25615;SDS011;13482;48.234;13.006;2022-12-18T05:06:56;17.52;;;9.45;;
25615;SDS011;13482;48.234;13.006;2022-12-18T05:09:23;15.40;;;9.45;;
25615;SDS011;13482;48.234;13.006;2022-12-18T05:11:50;16.77;;;9.77;;
25615;SDS011;13482;48.234;13.006;2022-12-18T05:14:17;14.88;;;8.88;;
25615;SDS011;13482;48.234;13.006;2022-12-18T05:16:44;16.83;;;9.07;;
25615;SDS011;13482;48.234;13.006;2022-12-18T05:19:11;14.95;;;9.05;;
25615;SDS011;13482;48.234;13.006;2022-12-18T05:21:39;15.93;;;9.52;;
25615;SDS011;13482;48.234;13.006;2022-12-18T05:24:06;16.10;;;9.75;;
25615;SDS011;13482;48.234;13.006;2022-12-18T05:26:33;16.42;;;10.30;;
25615;SDS011;13482;48.234;13.006;2022-12-18T05:29:01;16.20;;;9.85;;
25615;SDS011;13482;48.234;13.006;2022-12-18T05:31:28;15.15;;;9.25;;
25615;SDS011;13482;48.234;13.006;2022-12-18T05:34:01;14.45;;;8.85;;
25615;SDS011;13482;48.234;13.006;2022-12-18T05:36:28;15.77;;;9.23;;
25615;SDS011;13482;48.234;13.006;2022-12-18T05:38:55;16.83;;;9.65;;
25615;SDS011;13482;48.234;13.006;2022-12-18T05:41:22;16.88;;;9.63;;
25615;SDS011;13482;48.234;13.006;2022-12-18T05:43:49;15.10;;;9.48;;
25615;SDS011;13482;48.234;13.006;2022-12-18T05:46:16;16.23;;;9.93;;
25615;SDS011;13482;48.234;13.006;2022-12-18T05:48:44;15.10;;;9.02;;
25615;SDS011;13482;48.234;13.006;2022-12-18T05:51:13;15.98;;;9.05;;
25615;SDS011;13482;48.234;13.006;2022-12-18T05:53:42;15.90;;;8.88;;
25615;SDS011;13482;48.234;13.006;2022-12-18T05:56:13;16.65;;;9.43;;
25615;SDS011;13482;48.234;13.006;2022-12-18T05:58:43;15.73;;;9.00;;
25615;SDS011;13482;48.234;13.006;2022-12-18T06:01:13;15.57;;;9.63;;
25615;SDS011;13482;48.234;13.006;2022-12-18T06:03:46;16.15;;;9.07;;
25615;SDS011;13482;48.234;13.006;2022-12-18T06:06:17;14.57;;;8.73;;
25615;SDS011;13482;48.234;13.006;2022-12-18T06:08:51;14.75;;;9.13;;
25615;SDS011;13482;48.234;13.006;2022-12-18T06:11:21;15.75;;;8.70;;
25615;SDS011;13482;48.234;13.006;2022-12-18T06:16:24;14.35;;;8.40;;
25615;SDS011;13482;48.234;13.006;2022-12-18T06:18:52;13.23;;;8.13;;
25615;SDS011;13482;48.234;13.006;2022-12-18T06:21:22;13.80;;;8.30;;
25615;SDS011;13482;48.234;13.006;2022-12-18T06:23:49;15.45;;;8.85;;
25615;SDS011;13482;48.234;13.006;2022-12-18T06:26:16;15.48;;;9.02;;
25615;SDS011;13482;48.234;13.006;2022-12-18T06:28:48;15.85;;;8.77;;
25615;SDS011;13482;48.234;13.006;2022-12-18T06:31:15;17.60;;;8.80;;
25615;SDS011;13482;48.234;13.006;2022-12-18T06:33:42;14.02;;;7.97;;
25615;SDS011;13482;48.234;13.006;2022-12-18T06:36:11;15.88;;;8.95;;
25615;SDS011;13482;48.234;13.006;2022-12-18T06:38:40;14.18;;;8.38;;
25615;SDS011;13482;48.234;13.006;2022-12-18T06:41:10;15.10;;;8.98;;
25615;SDS011;13482;48.234;13.006;2022-12-18T06:43:41;15.40;;;8.45;;
25615;SDS011;13482;48.234;13.006;2022-12-18T06:46:10;13.40;;;8.10;;
25615;SDS011;13482;48.234;13.006;2022-12-18T06:48:38;14.90;;;8.27;;
25615;SDS011;13482;48.234;13.006;2022-12-18T06:51:05;14.63;;;8.35;;
25615;SDS011;13482;48.234;13.006;2022-12-18T06:53:35;15.60;;;8.77;;
25615;SDS011;13482;48.234;13.006;2022-12-18T06:56:03;16.73;;;9.45;;
25615;SDS011;13482;48.234;13.006;2022-12-18T06:58:36;15.73;;;8.73;;
25615;SDS011;13482;48.234;13.006;2022-12-18T07:01:08;15.93;;;8.77;;
25615;SDS011;13482;48.234;13.006;2022-12-18T07:03:38;14.38;;;8.35;;
25615;SDS011;13482;48.234;13.006;2022-12-18T07:06:14;15.55;;;8.65;;
25615;SDS011;13482;48.234;13.006;2022-12-18T07:08:53;15.93;;;8.77;;
25615;SDS011;13482;48.234;13.006;2022-12-18T07:11:21;14.20;;;8.93;;
25615;SDS011;13482;48.234;13.006;2022-12-18T07:13:49;15.15;;;8.70;;
25615;SDS011;13482;48.234;13.006;2022-12-18T07:16:17;15.82;;;8.88;;
25615;SDS011;13482;48.234;13.006;2022-12-18T07:18:50;14.13;;;8.23;;
25615;SDS011;13482;48.234;13.006;2022-12-18T07:21:19;16.10;;;8.98;;
25615;SDS011;13482;48.234;13.006;2022-12-18T07:23:48;17.35;;;8.80;;
25615;SDS011;13482;48.234;13.006;2022-12-18T07:26:16;17.65;;;9.77;;
25615;SDS011;13482;48.234;13.006;2022-12-18T07:28:46;14.40;;;8.25;;
25615;SDS011;13482;48.234;13.006;2022-12-18T07:31:15;17.33;;;9.60;;
25615;SDS011;13482;48.234;13.006;2022-12-18T07:33:47;16.65;;;9.00;;
25615;SDS011;13482;48.234;13.006;2022-12-18T07:36:14;14.98;;;8.60;;
25615;SDS011;13482;48.234;13.006;2022-12-18T07:38:46;15.32;;;9.05;;
25615;SDS011;13482;48.234;13.006;2022-12-18T07:41:19;17.92;;;9.57;;
25615;SDS011;13482;48.234;13.006;2022-12-18T07:43:46;17.30;;;9.32;;
25615;SDS011;13482;48.234;13.006;2022-12-18T07:46:14;17.23;;;9.82;;
25615;SDS011;13482;48.234;13.006;2022-12-18T07:48:44;17.05;;;9.43;;
25615;SDS011;13482;48.234;13.006;2022-12-18T07:51:15;15.38;;;9.20;;
25615;SDS011;13482;48.234;13.006;2022-12-18T07:53:44;15.25;;;8.95;;
25615;SDS011;13482;48.234;13.006;2022-12-18T07:56:16;17.15;;;8.80;;
25615;SDS011;13482;48.234;13.006;2022-12-18T07:58:53;17.25;;;8.75;;
25615;SDS011;13482;48.234;13.006;2022-12-18T08:01:20;14.77;;;8.55;;
25615;SDS011;13482;48.234;13.006;2022-12-18T08:03:47;15.18;;;8.70;;
25615;SDS011;13482;48.234;13.006;2022-12-18T08:06:17;15.02;;;8.82;;
25615;SDS011;13482;48.234;13.006;2022-12-18T08:08:58;15.65;;;8.43;;
25615;SDS011;13482;48.234;13.006;2022-12-18T08:11:26;14.23;;;8.45;;
25615;SDS011;13482;48.234;13.006;2022-12-18T08:13:55;15.55;;;8.52;;
25615;SDS011;13482;48.234;13.006;2022-12-18T08:16:23;14.10;;;8.43;;
25615;SDS011;13482;48.234;13.006;2022-12-18T08:18:51;16.25;;;8.80;;
25615;SDS011;13482;48.234;13.006;2022-12-18T08:21:21;15.23;;;8.65;;
25615;SDS011;13482;48.234;13.006;2022-12-18T08:23:58;13.65;;;8.18;;
25615;SDS011;13482;48.234;13.006;2022-12-18T08:26:27;14.43;;;8.23;;
25615;SDS011;13482;48.234;13.006;2022-12-18T08:29:05;14.48;;;8.10;;
25615;SDS011;13482;48.234;13.006;2022-12-18T08:31:34;14.45;;;8.60;;
25615;SDS011;13482;48.234;13.006;2022-12-18T08:34:06;12.23;;;7.43;;
25615;SDS011;13482;48.234;13.006;2022-12-18T08:36:35;14.88;;;8.23;;
25615;SDS011;13482;48.234;13.006;2022-12-18T08:39:02;14.18;;;8.13;;
25615;SDS011;13482;48.234;13.006;2022-12-18T08:41:29;16.00;;;8.88;;
25615;SDS011;13482;48.234;13.006;2022-12-18T08:43:59;15.45;;;8.07;;
25615;SDS011;13482;48.234;13.006;2022-12-18T08:46:44;13.48;;;7.45;;
25615;SDS011;13482;48.234;13.006;2022-12-18T08:49:11;14.48;;;8.43;;
25615;SDS011;13482;48.234;13.006;2022-12-18T08:51:39;14.63;;;8.02;;
25615;SDS011;13482;48.234;13.006;2022-12-18T08:54:10;14.70;;;9.02;;
25615;SDS011;13482;48.234;13.006;2022-12-18T08:56:45;14.40;;;8.25;;
25615;SDS011;13482;48.234;13.006;2022-12-18T08:59:16;16.63;;;9.15;;
25615;SDS011;13482;48.234;13.006;2022-12-18T09:01:46;13.50;;;8.00;;
25615;SDS011;13482;48.234;13.006;2022-12-18T09:04:14;14.63;;;8.43;;
25615;SDS011;13482;48.234;13.006;2022-12-18T09:06:41;14.55;;;8.43;;
25615;SDS011;13482;48.234;13.006;2022-12-18T09:09:09;13.98;;;8.50;;
25615;SDS011;13482;48.234;13.006;2022-12-18T09:11:37;17.20;;;9.07;;
25615;SDS011;13482;48.234;13.006;2022-12-18T09:14:04;15.25;;;9.02;;
25615;SDS011;13482;48.234;13.006;2022-12-18T09:16:32;14.25;;;7.78;;
25615;SDS011;13482;48.234;13.006;2022-12-18T09:19:02;15.18;;;8.40;;
25615;SDS011;13482;48.234;13.006;2022-12-18T09:21:32;14.70;;;8.43;;
25615;SDS011;13482;48.234;13.006;2022-12-18T09:24:03;14.35;;;8.30;;
25615;SDS011;13482;48.234;13.006;2022-12-18T09:26:34;15.95;;;9.13;;
25615;SDS011;13482;48.234;13.006;2022-12-18T09:29:03;16.63;;;9.35;;
25615;SDS011;13482;48.234;13.006;2022-12-18T09:31:30;15.32;;;8.98;;
25615;SDS011;13482;48.234;13.006;2022-12-18T09:33:58;15.77;;;9.30;;
25615;SDS011;13482;48.234;13.006;2022-12-18T09:36:25;15.20;;;8.95;;
25615;SDS011;13482;48.234;13.006;2022-12-18T09:38:55;15.80;;;9.38;;
25615;SDS011;13482;48.234;13.006;2022-12-18T09:41:41;16.13;;;9.18;;
25615;SDS011;13482;48.234;13.006;2022-12-18T09:46:57;14.73;;;8.48;;
25615;SDS011;13482;48.234;13.006;2022-12-18T09:50:01;13.00;;;7.80;;
25615;SDS011;13482;48.234;13.006;2022-12-18T09:52:59;14.77;;;8.82;;
25615;SDS011;13482;48.234;13.006;2022-12-18T09:55:34;15.52;;;8.85;;
25615;SDS011;13482;48.234;13.006;2022-12-18T10:00:36;15.35;;;8.43;;
25615;SDS011;13482;48.234;13.006;2022-12-18T10:03:08;17.05;;;9.30;;
25615;SDS011;13482;48.234;13.006;2022-12-18T10:08:38;14.30;;;8.35;;
25615;SDS011;13482;48.234;13.006;2022-12-18T10:17:26;13.48;;;7.88;;
25615;SDS011;13482;48.234;13.006;2022-12-18T10:26:13;11.85;;;6.70;;
25615;SDS011;13482;48.234;13.006;2022-12-18T10:28:41;13.23;;;7.13;;
25615;SDS011;13482;48.234;13.006;2022-12-18T10:31:14;12.35;;;7.32;;
25615;SDS011;13482;48.234;13.006;2022-12-18T10:33:45;14.20;;;8.02;;
25615;SDS011;13482;48.234;13.006;2022-12-18T10:36:13;13.45;;;7.50;;
25615;SDS011;13482;48.234;13.006;2022-12-18T10:38:40;14.80;;;8.30;;
25615;SDS011;13482;48.234;13.006;2022-12-18T10:44:10;13.32;;;8.07;;
25615;SDS011;13482;48.234;13.006;2022-12-18T10:46:55;13.32;;;7.45;;
25615;SDS011;13482;48.234;13.006;2022-12-18T10:49:36;11.30;;;6.82;;
25615;SDS011;13482;48.234;13.006;2022-12-18T10:52:18;14.93;;;7.97;;
25615;SDS011;13482;48.234;13.006;2022-12-18T10:55:04;12.80;;;7.80;;
25615;SDS011;13482;48.234;13.006;2022-12-18T11:02:51;14.40;;;8.35;;
25615;SDS011;13482;48.234;13.006;2022-12-18T11:05:30;12.55;;;7.90;;
25615;SDS011;13482;48.234;13.006;2022-12-18T11:08:01;12.60;;;7.43;;
25615;SDS011;13482;48.234;13.006;2022-12-18T11:13:18;15.32;;;8.80;;
25615;SDS011;13482;48.234;13.006;2022-12-18T11:15:52;13.30;;;8.10;;
25615;SDS011;13482;48.234;13.006;2022-12-18T11:18:22;14.32;;;8.15;;
25615;SDS011;13482;48.234;13.006;2022-12-18T11:20:59;13.68;;;7.85;;
25615;SDS011;13482;48.234;13.006;2022-12-18T11:23:34;13.18;;;7.90;;
25615;SDS011;13482;48.234;13.006;2022-12-18T11:26:03;14.00;;;8.43;;
25615;SDS011;13482;48.234;13.006;2022-12-18T11:36:48;13.15;;;7.28;;
25615;SDS011;13482;48.234;13.006;2022-12-18T11:39:20;11.32;;;7.13;;
25615;SDS011;13482;48.234;13.006;2022-12-18T11:41:54;12.85;;;7.45;;
25615;SDS011;13482;48.234;13.006;2022-12-18T11:44:41;12.90;;;7.82;;
25615;SDS011;13482;48.234;13.006;2022-12-18T11:50:52;14.10;;;8.10;;
25615;SDS011;13482;48.234;13.006;2022-12-18T11:53:18;13.48;;;7.72;;
25615;SDS011;13482;48.234;13.006;2022-12-18T12:04:04;12.07;;;7.68;;
25615;SDS011;13482;48.234;13.006;2022-12-18T12:21:46;12.68;;;7.65;;
25615;SDS011;13482;48.234;13.006;2022-12-18T12:28:12;12.60;;;7.20;;
25615;SDS011;13482;48.234;13.006;2022-12-18T12:36:40;11.35;;;6.75;;
25615;SDS011;13482;48.234;13.006;2022-12-18T12:39:47;10.65;;;6.82;;
25615;SDS011;13482;48.234;13.006;2022-12-18T12:42:16;11.57;;;7.15;;
25615;SDS011;13482;48.234;13.006;2022-12-18T12:45:16;11.90;;;6.97;;
25615;SDS011;13482;48.234;13.006;2022-12-18T12:47:54;12.75;;;7.93;;
25615;SDS011;13482;48.234;13.006;2022-12-18T12:50:24;11.18;;;7.28;;
25615;SDS011;13482;48.234;13.006;2022-12-18T12:52:53;10.60;;;7.20;;
25615;SDS011;13482;48.234;13.006;2022-12-18T12:55:26;12.32;;;7.93;;
25615;SDS011;13482;48.234;13.006;2022-12-18T12:58:00;12.23;;;7.90;;
25615;SDS011;13482;48.234;13.006;2022-12-18T13:06:46;12.45;;;7.13;;
25615;SDS011;13482;48.234;13.006;2022-12-18T13:09:33;10.73;;;6.82;;
25615;SDS011;13482;48.234;13.006;2022-12-18T13:12:04;10.65;;;7.10;;
25615;SDS011;13482;48.234;13.006;2022-12-18T13:15:13;11.18;;;7.13;;
25615;SDS011;13482;48.234;13.006;2022-12-18T13:23:32;11.25;;;7.22;;
25615;SDS011;13482;48.234;13.006;2022-12-18T13:34:24;11.27;;;7.20;;
25615;SDS011;13482;48.234;13.006;2022-12-18T13:40:46;10.73;;;6.18;;
25615;SDS011;13482;48.234;13.006;2022-12-18T13:43:32;12.60;;;7.03;;
25615;SDS011;13482;48.234;13.006;2022-12-18T13:51:50;10.88;;;7.45;;
25615;SDS011;13482;48.234;13.006;2022-12-18T13:54:25;11.90;;;7.32;;
25615;SDS011;13482;48.234;13.006;2022-12-18T13:57:04;11.95;;;7.72;;
25615;SDS011;13482;48.234;13.006;2022-12-18T13:59:37;10.98;;;7.13;;
25615;SDS011;13482;48.234;13.006;2022-12-18T14:02:13;12.25;;;7.28;;
25615;SDS011;13482;48.234;13.006;2022-12-18T14:04:47;11.95;;;7.47;;
25615;SDS011;13482;48.234;13.006;2022-12-18T14:09:53;9.98;;;6.13;;
25615;SDS011;13482;48.234;13.006;2022-12-18T14:12:49;10.80;;;6.57;;
25615;SDS011;13482;48.234;13.006;2022-12-18T14:15:35;10.80;;;6.32;;
25615;SDS011;13482;48.234;13.006;2022-12-18T14:20:58;10.40;;;6.88;;
25615;SDS011;13482;48.234;13.006;2022-12-18T14:23:35;9.27;;;6.32;;
25615;SDS011;13482;48.234;13.006;2022-12-18T14:28:56;9.48;;;6.53;;
25615;SDS011;13482;48.234;13.006;2022-12-18T14:31:31;9.50;;;6.65;;
25615;SDS011;13482;48.234;13.006;2022-12-18T14:33:58;9.10;;;6.55;;
25615;SDS011;13482;48.234;13.006;2022-12-18T14:36:28;9.43;;;6.22;;
25615;SDS011;13482;48.234;13.006;2022-12-18T14:38:56;10.97;;;6.67;;
25615;SDS011;13482;48.234;13.006;2022-12-18T14:41:29;9.40;;;6.47;;
25615;SDS011;13482;48.234;13.006;2022-12-18T14:44:04;10.98;;;7.30;;
25615;SDS011;13482;48.234;13.006;2022-12-18T14:46:37;10.73;;;6.85;;
25615;SDS011;13482;48.234;13.006;2022-12-18T14:52:01;10.02;;;6.65;;
25615;SDS011;13482;48.234;13.006;2022-12-18T14:54:33;9.52;;;6.43;;
25615;SDS011;13482;48.234;13.006;2022-12-18T14:57:04;10.65;;;6.95;;
25615;SDS011;13482;48.234;13.006;2022-12-18T14:59:41;10.60;;;7.22;;
25615;SDS011;13482;48.234;13.006;2022-12-18T15:02:21;10.43;;;6.85;;
25615;SDS011;13482;48.234;13.006;2022-12-18T15:05:35;11.98;;;6.95;;
25615;SDS011;13482;48.234;13.006;2022-12-18T15:07:49;9.27;;;6.32;;
25615;SDS011;13482;48.234;13.006;2022-12-18T15:10:20;10.88;;;7.03;;
25615;SDS011;13482;48.234;13.006;2022-12-18T15:13:05;10.68;;;6.57;;
25615;SDS011;13482;48.234;13.006;2022-12-18T15:18:18;11.02;;;7.03;;
25615;SDS011;13482;48.234;13.006;2022-12-18T15:20:54;10.43;;;6.55;;
25615;SDS011;13482;48.234;13.006;2022-12-18T15:26:20;10.07;;;6.68;;
25615;SDS011;13482;48.234;13.006;2022-12-18T15:28:54;11.00;;;7.25;;
25615;SDS011;13482;48.234;13.006;2022-12-18T15:31:30;11.30;;;6.97;;
25615;SDS011;13482;48.234;13.006;2022-12-18T15:34:10;11.88;;;7.07;;
25615;SDS011;13482;48.234;13.006;2022-12-18T15:36:42;10.85;;;6.53;;
25615;SDS011;13482;48.234;13.006;2022-12-18T15:39:11;11.60;;;6.88;;
25615;SDS011;13482;48.234;13.006;2022-12-18T15:41:39;11.38;;;7.30;;
25615;SDS011;13482;48.234;13.006;2022-12-18T15:44:22;12.73;;;7.57;;
25615;SDS011;13482;48.234;13.006;2022-12-18T15:46:51;10.10;;;7.00;;
25615;SDS011;13482;48.234;13.006;2022-12-18T15:49:19;11.25;;;6.97;;
25615;SDS011;13482;48.234;13.006;2022-12-18T15:51:47;11.27;;;6.82;;
25615;SDS011;13482;48.234;13.006;2022-12-18T15:54:20;12.52;;;6.72;;
25615;SDS011;13482;48.234;13.006;2022-12-18T15:57:10;9.82;;;5.93;;
25615;SDS011;13482;48.234;13.006;2022-12-18T15:59:50;10.45;;;6.05;;
25615;SDS011;13482;48.234;13.006;2022-12-18T16:02:20;10.43;;;6.15;;
25615;SDS011;13482;48.234;13.006;2022-12-18T16:04:54;10.85;;;6.55;;
25615;SDS011;13482;48.234;13.006;2022-12-18T16:07:21;10.23;;;6.47;;
25615;SDS011;13482;48.234;13.006;2022-12-18T16:09:50;11.70;;;6.07;;
25615;SDS011;13482;48.234;13.006;2022-12-18T16:12:21;9.05;;;5.82;;
25615;SDS011;13482;48.234;13.006;2022-12-18T16:14:51;11.98;;;6.68;;
25615;SDS011;13482;48.234;13.006;2022-12-18T16:17:20;11.43;;;6.47;;
25615;SDS011;13482;48.234;13.006;2022-12-18T16:19:47;11.43;;;6.55;;
25615;SDS011;13482;48.234;13.006;2022-12-18T16:22:18;11.25;;;6.40;;
25615;SDS011;13482;48.234;13.006;2022-12-18T16:24:47;9.85;;;6.60;;
25615;SDS011;13482;48.234;13.006;2022-12-18T16:27:16;13.60;;;7.47;;
25615;SDS011;13482;48.234;13.006;2022-12-18T16:29:43;16.13;;;8.77;;
25615;SDS011;13482;48.234;13.006;2022-12-18T16:32:12;26.10;;;12.30;;
25615;SDS011;13482;48.234;13.006;2022-12-18T16:34:42;30.63;;;13.30;;
25615;SDS011;13482;48.234;13.006;2022-12-18T16:37:13;26.25;;;12.02;;
25615;SDS011;13482;48.234;13.006;2022-12-18T16:39:42;19.85;;;9.98;;
25615;SDS011;13482;48.234;13.006;2022-12-18T16:44:46;14.15;;;7.82;;
25615;SDS011;13482;48.234;13.006;2022-12-18T16:47:15;11.25;;;7.05;;
25615;SDS011;13482;48.234;13.006;2022-12-18T16:49:44;13.90;;;7.07;;
25615;SDS011;13482;48.234;13.006;2022-12-18T16:52:12;12.70;;;6.93;;
25615;SDS011;13482;48.234;13.006;2022-12-18T16:54:42;8.00;;;4.85;;
25615;SDS011;13482;48.234;13.006;2022-12-18T16:57:12;11.18;;;6.53;;
25615;SDS011;13482;48.234;13.006;2022-12-18T16:59:41;11.35;;;6.25;;
25615;SDS011;13482;48.234;13.006;2022-12-18T17:02:16;14.38;;;7.10;;
25615;SDS011;13482;48.234;13.006;2022-12-18T17:04:49;11.55;;;6.40;;
25615;SDS011;13482;48.234;13.006;2022-12-18T17:07:20;11.77;;;6.82;;
25615;SDS011;13482;48.234;13.006;2022-12-18T17:09:47;11.85;;;6.97;;
25615;SDS011;13482;48.234;13.006;2022-12-18T17:12:17;13.15;;;7.18;;
25615;SDS011;13482;48.234;13.006;2022-12-18T17:14:46;12.38;;;7.00;;
25615;SDS011;13482;48.234;13.006;2022-12-18T17:17:15;11.45;;;7.05;;
25615;SDS011;13482;48.234;13.006;2022-12-18T17:19:49;13.27;;;7.43;;
25615;SDS011;13482;48.234;13.006;2022-12-18T17:22:18;11.90;;;7.00;;
25615;SDS011;13482;48.234;13.006;2022-12-18T17:24:46;13.95;;;7.88;;
25615;SDS011;13482;48.234;13.006;2022-12-18T17:27:13;13.27;;;7.68;;
25615;SDS011;13482;48.234;13.006;2022-12-18T17:29:41;14.18;;;7.75;;
25615;SDS011;13482;48.234;13.006;2022-12-18T17:32:15;11.77;;;6.90;;
25615;SDS011;13482;48.234;13.006;2022-12-18T17:34:44;13.00;;;7.53;;
25615;SDS011;13482;48.234;13.006;2022-12-18T17:37:14;12.70;;;7.80;;
25615;SDS011;13482;48.234;13.006;2022-12-18T17:39:44;14.32;;;7.13;;
25615;SDS011;13482;48.234;13.006;2022-12-18T17:42:12;12.70;;;7.53;;
25615;SDS011;13482;48.234;13.006;2022-12-18T17:44:42;13.93;;;8.00;;
25615;SDS011;13482;48.234;13.006;2022-12-18T17:47:11;12.43;;;7.90;;